There are no active watches, warnings or advisories for Caledonia (Vermont).

Nearby METAR Reports

 

KCDA - Lyndonville, Vermont, USA
Distance from station: ENE 11mi, 18km
Updated: Wed, 12-Dec-2018 9:35pm EST
Clear
Clear
 Wind from calm
Wind: Calm
Temperature: 3°F , -16°C
Dew Point: -0°F , -18°C
Humidity: 85%
Clouds: Clear
Visibility: 10 miles , 16 km
2018/12/13 02:35 KCDA 130235Z AUTO 00000KT 10SM CLR M16/M18 RMK AO2 T11651182
K1V4 - St. Johnsbury, Vermont, USA
Distance from station: ESE 12mi, 19km
Updated: Wed, 12-Dec-2018 8:54pm EST

 
Temperature: 5°F , -15°C
Dew Point: 1°F , -17°C
Humidity: 85%
Barometer: 30.29 inHg , 1025.7 hPa
2018/12/13 01:54 K1V4 130154Z AUTO M15/M17 A3029 RMK AO1 SLP282 T11501167
 
KMVL - Morrisville, Vermont, USA
Distance from station: W 20mi, 31km
Updated: Wed, 12-Dec-2018 8:54pm EST
Clear
Clear
 Wind from calm
Wind: Calm
Temperature: -4°F , -20°C
Dew Point: -6°F , -21°C
Humidity: 92%
Barometer: 30.31 inHg , 1026.4 hPa
Clouds: Clear
Visibility: 9 miles , 14 km
2018/12/13 01:54 KMVL 130154Z AUTO 00000KT 9SM CLR M20/M21 A3031 RMK AO2 SLP284 I1000 T12001206
KEFK - Newport State, Vermont, USA
Distance from station: N 26mi, 42km
Updated: Wed, 12-Dec-2018 9:35pm EST
Clear
Clear
 Wind from calm
Wind: Calm
Temperature: -6°F , -21°C
Dew Point: -11°F , -24°C
Humidity: 77%
Barometer: 30.30 inHg , 1026.1 hPa
Clouds: Clear
Visibility: 10 miles , 16 km
2018/12/13 02:35 KEFK 130235Z AUTO 00000KT 10SM CLR M21/M24 A3030 RMK AO2 T12131236
 
KMPV - Montpelier/Barre, Vermont, USA
Distance from station: SW 27mi, 44km
Updated: Wed, 12-Dec-2018 8:51pm EST
Clear
Clear
 Wind from calm
Wind: Calm
Temperature: 3°F , -16°C
Dew Point: -0°F , -18°C
Humidity: 85%
Barometer: 30.29 inHg , 1025.7 hPa
Clouds: Clear
Visibility: 10 miles , 16 km
2018/12/13 01:51 KMPV 130151Z AUTO 00000KT 10SM CLR M16/M18 A3029 RMK AO2 SLP284 T11611183
KHIE - Whitefield, New Hampshire, USA
Distance from station: ESE 34mi, 55km
Updated: Wed, 12-Dec-2018 8:52pm EST
Clear
Clear
 Wind from calm
Wind: Calm
Temperature: -0°F , -18°C
Dew Point: -6°F , -21°C
Humidity: 78%
Barometer: 30.27 inHg , 1025.1 hPa
Clouds: Clear
Visibility: 10 miles , 16 km
2018/12/13 01:52 KHIE 130152Z AUTO 00000KT 10SM CLR M18/M21 A3027 RMK AO2 SLP278 I1000 T11831206
 
KBTV - Burlington, Vermont, USA
Distance from station: W 46mi, 74km
Updated: Wed, 12-Dec-2018 9:18pm EST
Few Clouds
Few Clouds
 Wind from calm
Wind: Calm
Temperature: 5°F , -15°C
Dew Point: -0°F , -18°C
Humidity: 78%
Barometer: 30.32 inHg , 1026.8 hPa
Clouds: Few Clouds
Visibility: 7 miles , 11 km
Cloud details: Few Clouds 200 ft
2018/12/13 02:18 KBTV 130218Z 00000KT 7SM FEW002 M15/M18 A3032 RMK AO2 T11501178
CWFQ - Frelighsburg, Quebec, Canada
Distance from station: NW 47mi, 75km
Updated: Wed, 12-Dec-2018 9:00pm EST

 Wind from SE
Wind: SE 1 mph , 2 km/h
Temperature: 3°F , -16°C
Dew Point: -0°F , -18°C
Humidity: 85%
2018/12/13 02:00 CWFQ 130200Z AUTO 14001KT M16/M18 RMK AO1 SOG 18 1011 SLP267 T11611175
 
KMWN - Mount Washington, New Hampshire, USA
Distance from station: ESE 49mi, 79km
Updated: Wed, 12-Dec-2018 8:56pm EST

 Wind from NNE
Wind: NNE 25 mph , 41 km/h
Visibility: 120 miles , 192 km
2018/12/13 01:56 KMWN 130156Z 02022KT 120SM FEW/// FEW180 M16/M33 RMK TPS LWR FEW035
KBML - Berlin, New Hampshire, USA
Distance from station: E 51mi, 83km
Updated: Wed, 12-Dec-2018 8:52pm EST
Clear
Clear
 Wind from calm
Wind: Calm
Temperature: -0°F , -18°C
Dew Point: -6°F , -21°C
Humidity: 78%
Barometer: 30.26 inHg , 1024.7 hPa
Clouds: Clear
Visibility: 10 miles , 16 km
2018/12/13 01:52 KBML 130152Z AUTO 00000KT 10SM CLR M18/M21 A3026 RMK AO2 SLP275 I1000 T11831211
 
KFSO - Highgate, Vermont, USA
Distance from station: NW 52mi, 84km
Updated: Wed, 12-Dec-2018 9:35pm EST
Clear
Clear
 Wind from calm
Wind: Calm
Temperature: -0°F , -18°C
Dew Point: -4°F , -20°C
Humidity: 84%
Barometer: 30.34 inHg , 1027.4 hPa
Clouds: Clear
Visibility: 10 miles , 16 km
2018/12/13 02:35 KFSO 130235Z AUTO 00000KT 10SM CLR M18/M20 A3034 RMK AO2 T11791196
CWTT - Lac Memphremagog, Quebec, Canada
Distance from station: N 53mi, 85km
Updated: Wed, 12-Dec-2018 9:00pm EST

 Wind from N
Wind: N 2 mph , 4 km/h
Temperature: -6°F , -21°C
Dew Point: -8°F , -22°C
Humidity: 92%
2018/12/13 02:00 CWTT 130200Z AUTO 01002KT M21/M22 RMK AO1 T12061224
 
K1P1 - Plymouth, New Hampshire, USA
Distance from station: SSE 55mi, 88km
Updated: Wed, 12-Dec-2018 9:35pm EST
Clear
Clear
 Wind from calm
Wind: Calm
Temperature: 9°F , -13°C
Dew Point: 7°F , -14°C
Humidity: 92%
Barometer: 30.29 inHg , 1025.7 hPa
Clouds: Clear
Visibility: 10 miles , 16 km
2018/12/13 02:35 K1P1 130235Z AUTO 00000KT 10SM CLR M13/M14 A3029 RMK AO2 T11281145
KLEB - Lebanon, New Hampshire, USA
Distance from station: S 60mi, 97km
Updated: Wed, 12-Dec-2018 8:53pm EST
Clear
Clear
 Wind from N
Wind: N 6 mph , 9 km/h
Temperature: 10°F , -12°C
Wind Chill: 0°F , -18°C
Dew Point: 3°F , -16°C
Humidity: 72%
Barometer: 30.27 inHg , 1025.1 hPa
Clouds: Clear
Visibility: 10 miles , 16 km
2018/12/13 01:53 KLEB 130153Z 36005KT 10SM CLR M12/M16 A3027 RMK AO2 SLP267 T11171161
 
KPBG - Plattsburgh Afb, New York, USA
Distance from station: W 62mi, 100km
Updated: Wed, 12-Dec-2018 8:53pm EST
Clear
Clear
 Wind from WNW
Wind: WNW 6 mph , 9 km/h
Temperature: 7°F , -14°C
Wind Chill: -4°F , -20°C
Dew Point: 1°F , -17°C
Humidity: 78%
Barometer: 30.33 inHg , 1027.1 hPa
Clouds: Clear
Visibility: 10 miles , 16 km
2018/12/13 01:53 KPBG 130153Z AUTO 29005KT 10SM CLR M14/M17 A3033 RMK AO2 SLP277 T11391167
CWQH - Lennoxville, Quebec, Canada
Distance from station: NNE 63mi, 101km
Updated: Wed, 12-Dec-2018 9:00pm EST

 Wind from S
Wind: S 2 mph , 4 km/h
Temperature: -4°F , -20°C
Dew Point: -8°F , -22°C
Humidity: 84%
2018/12/13 02:00 CWQH 130200Z AUTO 18002KT M20/M22 RMK AO1 SOG 19 T11971217
 
CMGB - Granby, Quebec, Canada
Distance from station: NNW 65mi, 105km
Updated: Wed, 12-Dec-2018 9:45pm EST

 Wind from NNE
Wind: NNE 1 mph , 2 km/h
Temperature: -2°F , -19°C
Dew Point: -6°F , -21°C
Humidity: 84%
2018/12/13 02:45 CMGB 130245Z AUTO 02001KT M19/M21 RMK AO1 SOG 09 1013 SLP281 T11921212
CYSC - Sherbrooke, Quebec, Canada
Distance from station: NNE 69mi, 112km
Updated: Wed, 12-Dec-2018 9:00pm EST
Clear
Clear
 Wind from E
Wind: E 3 mph , 6 km/h
Temperature: -4°F , -20°C
Dew Point: -8°F , -22°C
Humidity: 84%
Barometer: 30.31 inHg , 1026.4 hPa
Clouds: Clear
Visibility: 9 miles , 14 km
2018/12/13 02:00 CYSC 130200Z AUTO 08003KT 9SM CLR M20/M22 A3031 RMK SLP287
 
KIZG - Fryeburg, Maine, USA
Distance from station: ESE 72mi, 117km
Updated: Wed, 12-Dec-2018 8:54pm EST
Clear
Clear
 Wind from calm
Wind: Calm
Temperature: 3°F , -16°C
Dew Point: -0°F , -18°C
Humidity: 85%
Barometer: 30.29 inHg , 1025.7 hPa
Clouds: Clear
Visibility: 10 miles , 16 km
2018/12/13 01:54 KIZG 130154Z AUTO 00000KT 10SM CLR M16/M18 A3029 RMK AO2 SLP267 T11561178